createdAt,value
2022-08-26T00:00:52.005Z,19.96
2022-08-26T00:03:21.233Z,19.94
2022-08-26T00:05:51.504Z,19.86
2022-08-26T00:08:21.405Z,19.88
2022-08-26T00:10:51.572Z,19.82
2022-08-26T00:13:20.211Z,19.79
2022-08-26T00:15:48.295Z,19.77
2022-08-26T00:18:22.226Z,19.59
2022-08-26T00:20:51.407Z,19.54
2022-08-26T00:23:19.521Z,19.38
2022-08-26T00:25:48.389Z,19.50
2022-08-26T00:28:19.045Z,19.57
2022-08-26T00:30:51.710Z,19.53
2022-08-26T00:33:21.106Z,19.52
2022-08-26T00:35:49.488Z,19.51
2022-08-26T00:38:23.018Z,19.38
2022-08-26T00:40:53.974Z,19.31
2022-08-26T00:43:25.450Z,19.29
2022-08-26T00:46:02.382Z,19.31
2022-08-26T00:48:34.378Z,19.37
2022-08-26T00:51:07.812Z,19.34
2022-08-26T00:53:41.452Z,19.31
2022-08-26T00:56:15.393Z,19.33
2022-08-26T00:58:45.614Z,19.40
2022-08-26T01:01:14.040Z,19.42
2022-08-26T01:03:45.281Z,19.43
2022-08-26T01:06:14.442Z,19.36
2022-08-26T01:08:42.952Z,19.43
2022-08-26T01:11:11.868Z,19.55
2022-08-26T01:13:40.432Z,19.60
2022-08-26T01:16:14.654Z,19.41
2022-08-26T01:18:45.227Z,19.34
2022-08-26T01:21:20.455Z,19.37
2022-08-26T01:23:57.478Z,19.34
2022-08-26T01:26:30.053Z,19.33
2022-08-26T01:29:00.992Z,19.29
2022-08-26T01:31:32.794Z,19.40
2022-08-26T01:34:07.612Z,19.32
2022-08-26T01:36:39.076Z,19.55
2022-08-26T01:39:09.303Z,19.48
2022-08-26T01:41:40.747Z,19.41
2022-08-26T01:44:17.980Z,19.41
2022-08-26T01:46:48.192Z,19.49
2022-08-26T01:49:20.406Z,19.66
2022-08-26T01:51:50.328Z,19.52
2022-08-26T01:54:22.945Z,19.64
2022-08-26T01:56:52.297Z,19.61
2022-08-26T01:59:23.777Z,19.56
2022-08-26T02:01:52.733Z,19.57
2022-08-26T02:04:25.231Z,19.56
2022-08-26T02:06:54.686Z,19.55
2022-08-26T02:09:25.687Z,19.54
2022-08-26T02:11:54.992Z,19.52
2022-08-26T02:14:27.871Z,19.53
2022-08-26T02:16:57.299Z,19.40
2022-08-26T02:19:31.037Z,19.52
2022-08-26T02:22:02.287Z,19.59
2022-08-26T02:24:49.619Z,19.42
2022-08-26T02:27:19.918Z,19.37
2022-08-26T02:29:52.412Z,19.29
2022-08-26T02:32:20.927Z,19.17
2022-08-26T02:34:48.956Z,19.09
2022-08-26T02:37:17.716Z,19.12
2022-08-26T02:39:48.081Z,19.09
2022-08-26T02:42:16.126Z,19.04
2022-08-26T02:44:44.110Z,18.95
2022-08-26T02:47:15.605Z,19.00
2022-08-26T02:49:44.685Z,18.99
2022-08-26T02:52:16.125Z,19.05
2022-08-26T02:54:44.457Z,19.02
2022-08-26T02:57:15.239Z,19.09
2022-08-26T02:59:43.785Z,19.03
2022-08-26T03:02:12.894Z,18.97
2022-08-26T03:04:57.351Z,19.06
2022-08-26T03:07:26.934Z,19.08
2022-08-26T03:09:54.933Z,19.20
2022-08-26T03:12:24.306Z,19.05
2022-08-26T03:14:54.533Z,19.04
2022-08-26T03:17:22.578Z,18.93
2022-08-26T03:19:54.669Z,18.96
2022-08-26T03:22:26.273Z,18.85
2022-08-26T03:24:55.832Z,18.86
2022-08-26T03:27:25.100Z,18.84
2022-08-26T03:30:11.833Z,18.73
2022-08-26T03:32:41.560Z,18.69
2022-08-26T03:35:10.971Z,18.73
2022-08-26T03:37:38.928Z,18.66
2022-08-26T03:40:10.827Z,18.58
2022-08-26T03:42:44.479Z,18.54
2022-08-26T03:45:18.669Z,18.42
2022-08-26T03:47:47.209Z,18.50
2022-08-26T03:50:24.280Z,18.47
2022-08-26T03:52:54.813Z,18.43
2022-08-26T03:55:24.986Z,18.50
2022-08-26T03:57:55.004Z,18.36
2022-08-26T04:00:23.423Z,18.40
2022-08-26T04:02:53.202Z,18.31
2022-08-26T04:05:23.502Z,18.26
2022-08-26T04:07:51.702Z,18.29
2022-08-26T04:10:26.394Z,18.28
2022-08-26T04:12:59.755Z,18.15
2022-08-26T04:15:28.547Z,18.14
2022-08-26T04:17:57.574Z,18.14
2022-08-26T04:20:26.201Z,18.22
2022-08-26T04:22:54.827Z,18.24
2022-08-26T04:25:24.174Z,18.22
2022-08-26T04:27:52.544Z,18.22
2022-08-26T04:30:22.267Z,18.20
2022-08-26T04:32:50.243Z,18.25
2022-08-26T04:35:18.576Z,18.29
2022-08-26T04:37:50.920Z,18.37
2022-08-26T04:40:19.039Z,18.43
2022-08-26T04:42:47.169Z,18.52
2022-08-26T04:45:16.901Z,18.65
2022-08-26T04:47:46.917Z,18.76
2022-08-26T04:50:15.297Z,18.79
2022-08-26T04:52:46.567Z,18.97
2022-08-26T04:55:14.971Z,19.23
2022-08-26T04:57:43.856Z,19.43
2022-08-26T05:00:13.308Z,19.60
2022-08-26T05:02:41.976Z,19.75
2022-08-26T05:05:12.274Z,19.82
2022-08-26T05:07:40.596Z,20.11
2022-08-26T05:10:10.088Z,20.55
2022-08-26T05:12:39.310Z,21.16
2022-08-26T05:15:10.349Z,21.89
2022-08-26T05:17:38.303Z,22.47
2022-08-26T05:20:07.391Z,23.24
2022-08-26T05:22:36.658Z,24.03
2022-08-26T05:25:05.842Z,24.88
2022-08-26T05:27:33.780Z,25.47
2022-08-26T05:30:02.511Z,26.25
2022-08-26T05:32:32.402Z,26.13
2022-08-26T05:35:00.281Z,25.49
2022-08-26T05:37:29.172Z,26.89
2022-08-26T05:39:58.732Z,27.55
2022-08-26T05:42:26.698Z,28.37
2022-08-26T05:44:56.351Z,29.01
2022-08-26T05:47:24.745Z,29.60
2022-08-26T05:49:55.005Z,30.50
2022-08-26T05:52:24.533Z,30.28
2022-08-26T05:54:54.303Z,30.35
2022-08-26T05:57:24.325Z,30.79
2022-08-26T05:59:52.721Z,31.19
2022-08-26T06:02:20.682Z,31.30
2022-08-26T06:04:49.130Z,32.32
2022-08-26T06:07:17.141Z,31.87
2022-08-26T06:09:46.991Z,32.08
2022-08-26T06:12:15.798Z,32.64
2022-08-26T06:14:49.032Z,32.42
2022-08-26T06:17:16.992Z,33.53
2022-08-26T06:19:45.763Z,33.88
2022-08-26T06:22:28.045Z,33.81
2022-08-26T06:25:14.249Z,33.96
2022-08-26T06:27:42.775Z,34.19
2022-08-26T06:30:14.210Z,35.34
2022-08-26T06:32:43.885Z,35.80
2022-08-26T06:35:12.484Z,35.73
2022-08-26T06:37:40.537Z,36.01
2022-08-26T06:40:11.583Z,35.52
2022-08-26T06:42:42.444Z,34.89
2022-08-26T06:45:20.216Z,36.39
2022-08-26T06:47:49.447Z,37.07
2022-08-26T06:50:17.620Z,37.41
2022-08-26T06:52:46.653Z,38.02
2022-08-26T06:55:14.730Z,37.07
2022-08-26T06:57:42.945Z,38.27
2022-08-26T07:00:15.713Z,38.16
2022-08-26T07:02:47.084Z,38.76
2022-08-26T07:05:15.851Z,39.23
2022-08-26T07:07:43.790Z,39.11
2022-08-26T07:10:12.412Z,37.29
2022-08-26T07:12:40.302Z,36.04
2022-08-26T07:15:10.709Z,37.48
2022-08-26T07:17:40.333Z,36.46
2022-08-26T07:20:09.924Z,39.34
2022-08-26T07:22:38.311Z,39.21
2022-08-26T07:25:09.550Z,40.32
2022-08-26T07:27:38.830Z,40.60
2022-08-26T07:30:08.888Z,40.64
2022-08-26T07:32:37.558Z,39.66
2022-08-26T07:35:08.227Z,37.96
2022-08-26T07:37:39.324Z,34.28
2022-08-26T07:40:08.860Z,34.87
2022-08-26T07:42:37.357Z,34.79
2022-08-26T07:45:06.142Z,35.24
2022-08-26T07:47:34.586Z,34.58
2022-08-26T07:50:02.477Z,34.82
2022-08-26T07:52:32.449Z,34.86
2022-08-26T07:55:04.851Z,35.04
2022-08-26T07:57:34.554Z,34.80
2022-08-26T08:00:03.392Z,35.37
2022-08-26T08:02:31.823Z,35.74
2022-08-26T08:05:00.350Z,34.84
2022-08-26T08:07:44.397Z,35.30
2022-08-26T08:10:17.696Z,34.99
2022-08-26T08:12:46.623Z,35.23
2022-08-26T08:15:17.739Z,36.78
2022-08-26T08:17:45.826Z,37.54
2022-08-26T08:20:15.938Z,38.31
2022-08-26T08:22:44.092Z,36.58
2022-08-26T08:25:14.723Z,37.78
2022-08-26T08:27:45.558Z,39.03
2022-08-26T08:30:14.441Z,41.49
2022-08-26T08:32:43.618Z,41.28
2022-08-26T08:35:13.889Z,41.74
2022-08-26T08:37:42.658Z,42.21
2022-08-26T08:40:18.291Z,43.35
2022-08-26T08:45:36.608Z,43.59
2022-08-26T08:48:08.415Z,44.23
2022-08-26T08:50:45.833Z,42.92
2022-08-26T08:53:17.811Z,41.39
2022-08-26T08:56:02.012Z,43.92
2022-08-26T08:58:44.117Z,44.31
2022-08-26T09:01:21.091Z,42.97
2022-08-26T09:03:57.098Z,42.15
2022-08-26T09:06:27.764Z,41.98
2022-08-26T09:08:57.956Z,42.79
2022-08-26T09:11:27.481Z,44.00
2022-08-26T09:13:58.196Z,46.05
2022-08-26T09:16:36.062Z,45.29
2022-08-26T09:19:18.879Z,46.60
2022-08-26T09:21:57.826Z,45.81
2022-08-26T09:24:28.313Z,41.10
2022-08-26T09:26:59.182Z,42.63
2022-08-26T09:29:34.408Z,41.82
2022-08-26T09:32:21.098Z,41.84
2022-08-26T09:35:00.122Z,44.93
2022-08-26T09:37:41.109Z,43.74
2022-08-26T09:40:18.615Z,41.64
2022-08-26T09:43:10.724Z,44.70
2022-08-26T09:45:40.542Z,44.88
2022-08-26T09:48:31.288Z,46.38
2022-08-26T09:51:03.127Z,47.32
2022-08-26T09:53:36.577Z,46.82
2022-08-26T09:56:18.321Z,47.52
2022-08-26T09:58:48.952Z,44.24
2022-08-26T10:01:26.344Z,42.64
2022-08-26T10:03:54.461Z,41.70
2022-08-26T10:06:27.184Z,42.71
2022-08-26T10:08:59.181Z,40.77
2022-08-26T10:11:35.931Z,42.59
2022-08-26T10:14:13.103Z,40.68
2022-08-26T10:16:48.479Z,43.65
2022-08-26T10:19:20.566Z,42.98
2022-08-26T10:21:56.692Z,40.75
2022-08-26T10:24:31.521Z,41.83
2022-08-26T10:27:06.043Z,41.96
2022-08-26T10:29:43.903Z,44.10
2022-08-26T10:32:18.326Z,44.58
2022-08-26T10:34:46.561Z,42.17
2022-08-26T10:37:19.921Z,42.96
2022-08-26T10:39:58.509Z,44.64
2022-08-26T10:42:35.699Z,41.23
2022-08-26T10:45:15.080Z,40.62
2022-08-26T10:47:50.006Z,39.71
2022-08-26T10:50:19.428Z,41.43
2022-08-26T10:52:58.899Z,42.87
2022-08-26T10:55:37.592Z,44.01
2022-08-26T10:58:26.220Z,45.01
2022-08-26T11:01:22.849Z,44.82
2022-08-26T11:03:59.222Z,41.77
2022-08-26T11:06:29.284Z,41.28
2022-08-26T11:08:59.568Z,42.23
2022-08-26T11:11:50.830Z,37.25
2022-08-26T11:14:58.635Z,36.84
2022-08-26T11:18:07.154Z,35.10
2022-08-26T11:20:41.886Z,33.31
2022-08-26T11:23:40.422Z,33.31
2022-08-26T11:26:32.804Z,33.63
2022-08-26T11:29:04.561Z,33.66
2022-08-26T11:31:55.747Z,33.40
2022-08-26T11:34:56.386Z,32.61
2022-08-26T11:37:34.729Z,32.77
2022-08-26T11:40:07.723Z,32.08
2022-08-26T11:42:41.629Z,31.78
2022-08-26T11:45:19.812Z,30.81
2022-08-26T11:47:49.432Z,28.98
2022-08-26T11:50:23.275Z,28.56
2022-08-26T11:52:59.513Z,28.84
2022-08-26T11:55:27.491Z,29.46
2022-08-26T11:57:58.163Z,29.47
2022-08-26T12:00:33.746Z,29.54
2022-08-26T12:03:07.826Z,29.43
2022-08-26T12:05:43.731Z,29.67
2022-08-26T12:08:16.684Z,29.90
2022-08-26T12:10:44.723Z,29.76
2022-08-26T12:13:22.687Z,29.44
2022-08-26T12:15:55.928Z,29.39
2022-08-26T12:18:29.547Z,29.36
2022-08-26T12:21:02.677Z,30.21
2022-08-26T12:23:43.266Z,30.41
2022-08-26T12:26:19.906Z,30.64
2022-08-26T12:28:50.763Z,30.49
2022-08-26T12:31:37.949Z,31.20
2022-08-26T12:34:17.673Z,31.60
2022-08-26T12:36:50.433Z,30.92
2022-08-26T12:39:27.854Z,30.87
2022-08-26T12:41:57.798Z,30.42
2022-08-26T12:44:53.965Z,30.42
2022-08-26T12:47:39.015Z,31.00
2022-08-26T12:50:17.813Z,31.09
2022-08-26T12:52:57.360Z,31.38
2022-08-26T12:55:29.347Z,30.89
2022-08-26T12:58:11.703Z,31.35
2022-08-26T13:00:41.778Z,31.26
2022-08-26T13:03:31.741Z,30.99
2022-08-26T13:06:25.771Z,30.91
2022-08-26T13:08:57.784Z,31.03
2022-08-26T13:11:27.756Z,30.28
2022-08-26T13:13:59.155Z,30.69
2022-08-26T13:16:27.532Z,30.71
2022-08-26T13:18:57.633Z,30.81
2022-08-26T13:21:28.431Z,31.08
2022-08-26T13:24:06.166Z,31.00
2022-08-26T13:26:35.133Z,30.59
2022-08-26T13:29:05.369Z,30.34
2022-08-26T13:31:37.478Z,30.00
2022-08-26T13:34:05.580Z,30.25
2022-08-26T13:36:33.866Z,30.28
2022-08-26T13:39:03.219Z,30.33
2022-08-26T13:41:32.275Z,30.68
2022-08-26T13:44:00.232Z,30.80
2022-08-26T13:46:29.105Z,30.82
2022-08-26T13:48:57.223Z,31.05
2022-08-26T13:51:26.151Z,31.05
2022-08-26T13:53:54.925Z,31.28
2022-08-26T13:56:27.425Z,31.39
2022-08-26T13:58:55.271Z,31.35
2022-08-26T14:01:23.992Z,31.11
2022-08-26T14:03:52.008Z,30.71
2022-08-26T14:06:20.655Z,30.46
2022-08-26T14:08:49.480Z,30.53
2022-08-26T14:11:17.911Z,30.62
2022-08-26T14:13:47.269Z,30.58
2022-08-26T14:16:22.801Z,30.59
2022-08-26T14:18:51.232Z,30.43
2022-08-26T14:21:21.209Z,30.66
2022-08-26T14:23:49.216Z,30.64
2022-08-26T14:26:28.981Z,30.37
2022-08-26T14:28:59.764Z,30.38
2022-08-26T14:31:29.628Z,30.24
2022-08-26T14:33:59.202Z,30.40
2022-08-26T14:36:32.495Z,30.41
2022-08-26T14:39:04.123Z,29.97
2022-08-26T14:41:33.603Z,29.97
2022-08-26T14:44:05.409Z,29.82
2022-08-26T14:46:39.972Z,29.36
2022-08-26T14:49:10.746Z,29.57
2022-08-26T14:51:39.541Z,29.45
2022-08-26T14:54:13.529Z,29.60
2022-08-26T14:56:46.386Z,29.28
2022-08-26T14:59:19.126Z,29.13
2022-08-26T15:01:48.444Z,28.59
2022-08-26T15:04:17.037Z,28.56
2022-08-26T15:06:45.396Z,28.52
2022-08-26T15:09:13.617Z,28.01
2022-08-26T15:11:42.018Z,28.00
2022-08-26T15:14:19.100Z,28.00
2022-08-26T15:16:49.880Z,28.14
2022-08-26T15:19:18.228Z,28.21
2022-08-26T15:21:47.659Z,28.36
2022-08-26T15:24:18.184Z,28.56
2022-08-26T15:26:47.440Z,28.86
2022-08-26T15:29:15.889Z,28.97
2022-08-26T15:31:44.480Z,29.12
2022-08-26T15:34:16.971Z,29.01
2022-08-26T15:36:47.265Z,28.73
2022-08-26T15:39:17.167Z,28.55
2022-08-26T15:41:45.544Z,28.68
2022-08-26T15:44:16.528Z,28.71
2022-08-26T15:46:45.530Z,28.53
2022-08-26T15:49:17.518Z,28.45
2022-08-26T15:51:48.273Z,28.10
2022-08-26T15:54:18.116Z,28.37
2022-08-26T15:56:48.479Z,28.63
2022-08-26T15:59:17.199Z,28.72
2022-08-26T16:01:45.798Z,28.73
2022-08-26T16:04:15.156Z,28.78
2022-08-26T16:06:43.686Z,28.69
2022-08-26T16:09:11.964Z,28.65
2022-08-26T16:11:40.375Z,28.42
2022-08-26T16:14:08.360Z,28.39
2022-08-26T16:16:39.609Z,28.27
2022-08-26T16:19:07.867Z,28.39
2022-08-26T16:21:37.450Z,28.21
2022-08-26T16:24:06.142Z,28.48
2022-08-26T16:26:37.586Z,28.35
2022-08-26T16:29:08.681Z,28.38
2022-08-26T16:31:38.404Z,28.32
2022-08-26T16:34:06.624Z,28.23
2022-08-26T16:36:35.744Z,27.85
2022-08-26T16:39:07.193Z,27.48
2022-08-26T16:41:35.740Z,26.68
2022-08-26T16:44:04.879Z,26.25
2022-08-26T16:46:34.114Z,25.81
2022-08-26T16:49:04.563Z,25.74
2022-08-26T16:51:37.725Z,24.62
2022-08-26T16:54:08.885Z,23.92
2022-08-26T16:56:37.622Z,23.91
2022-08-26T16:59:08.051Z,22.92
2022-08-26T17:01:36.222Z,22.86
2022-08-26T17:04:04.780Z,22.44
2022-08-26T17:06:33.181Z,22.37
2022-08-26T17:09:01.666Z,22.30
2022-08-26T17:11:31.340Z,21.30
2022-08-26T17:13:59.681Z,20.89
2022-08-26T17:16:27.735Z,20.70
2022-08-26T17:18:57.255Z,20.02
2022-08-26T17:21:26.011Z,20.01
2022-08-26T17:23:54.410Z,20.08
2022-08-26T17:26:22.455Z,19.70
2022-08-26T17:28:52.531Z,19.58
2022-08-26T17:31:21.475Z,19.65
2022-08-26T17:33:53.524Z,19.85
2022-08-26T17:36:27.879Z,20.02
2022-08-26T17:38:57.916Z,20.03
2022-08-26T17:41:26.971Z,19.90
2022-08-26T17:43:56.831Z,19.90
2022-08-26T17:46:25.208Z,19.70
2022-08-26T17:48:53.657Z,19.67
2022-08-26T17:51:23.446Z,19.46
2022-08-26T17:53:52.235Z,19.58
2022-08-26T17:56:23.922Z,19.73
2022-08-26T17:58:53.098Z,19.85
2022-08-26T18:01:23.478Z,19.90
2022-08-26T18:03:51.588Z,20.12
2022-08-26T18:06:21.524Z,20.25
2022-08-26T18:08:51.697Z,20.38
2022-08-26T18:11:23.049Z,20.36
2022-08-26T18:13:51.672Z,20.47
2022-08-26T18:16:19.809Z,20.49
2022-08-26T18:18:53.770Z,20.48
2022-08-26T18:21:24.325Z,20.49
2022-08-26T18:23:53.347Z,20.47
2022-08-26T18:26:23.884Z,20.46
2022-08-26T18:28:52.289Z,20.21
2022-08-26T18:31:20.662Z,20.30
2022-08-26T18:33:50.464Z,20.33
2022-08-26T18:36:20.256Z,20.29
2022-08-26T18:38:50.636Z,20.41
2022-08-26T18:41:20.713Z,20.36
2022-08-26T18:43:50.756Z,20.33
2022-08-26T18:46:20.400Z,20.21
2022-08-26T18:48:51.237Z,20.29
2022-08-26T18:51:21.457Z,20.33
2022-08-26T18:53:49.981Z,20.21
2022-08-26T18:56:18.704Z,20.11
2022-08-26T18:58:47.913Z,20.19
2022-08-26T19:01:16.697Z,20.17
2022-08-26T19:03:45.279Z,20.14
2022-08-26T19:06:16.782Z,20.24
2022-08-26T19:08:45.143Z,20.19
2022-08-26T19:11:31.154Z,20.17
2022-08-26T19:14:00.027Z,20.12
2022-08-26T19:16:28.978Z,20.10
2022-08-26T19:18:58.793Z,20.05
2022-08-26T19:21:29.371Z,20.08
2022-08-26T19:23:58.655Z,20.18
2022-08-26T19:26:27.632Z,20.17
2022-08-26T19:28:56.016Z,20.25
2022-08-26T19:31:24.155Z,20.18
2022-08-26T19:33:52.540Z,20.11
2022-08-26T19:36:22.794Z,20.12
2022-08-26T19:38:52.735Z,20.11
2022-08-26T19:41:26.571Z,19.99
2022-08-26T19:44:09.310Z,19.91
2022-08-26T19:49:07.673Z,20.02
2022-08-26T19:51:37.673Z,20.07
2022-08-26T19:54:07.613Z,20.07
2022-08-26T19:56:35.611Z,19.97
2022-08-26T19:59:03.949Z,19.92
2022-08-26T20:01:32.049Z,19.78
2022-08-26T20:04:00.467Z,19.86
2022-08-26T20:06:28.550Z,19.90
2022-08-26T20:08:56.877Z,19.91
2022-08-26T20:11:26.525Z,19.90
2022-08-26T20:13:55.695Z,19.70
2022-08-26T20:16:23.869Z,19.80
2022-08-26T20:19:09.580Z,19.93
2022-08-26T20:21:39.839Z,19.92
2022-08-26T20:24:10.480Z,19.91
2022-08-26T20:26:42.873Z,19.88
2022-08-26T20:29:12.905Z,19.95
2022-08-26T20:31:49.902Z,20.07
2022-08-26T20:34:20.258Z,20.17
2022-08-26T20:36:49.479Z,20.37
2022-08-26T20:39:19.798Z,20.41
2022-08-26T20:41:48.199Z,20.37
2022-08-26T20:44:16.807Z,20.33
2022-08-26T20:46:45.325Z,20.35
2022-08-26T20:49:15.251Z,20.11
2022-08-26T20:51:43.883Z,19.92
2022-08-26T20:54:12.417Z,20.11
2022-08-26T20:56:40.845Z,20.09
2022-08-26T20:59:09.687Z,20.07
2022-08-26T21:01:42.253Z,19.80
2022-08-26T21:04:14.260Z,19.43
2022-08-26T21:06:52.641Z,19.36
2022-08-26T21:09:22.233Z,19.33
2022-08-26T21:11:51.303Z,19.48
2022-08-26T21:14:20.909Z,19.70
2022-08-26T21:16:48.922Z,19.54
2022-08-26T21:19:19.170Z,19.38
2022-08-26T21:21:49.314Z,19.23
2022-08-26T21:24:17.738Z,19.27
2022-08-26T21:26:46.056Z,19.31
2022-08-26T21:29:14.916Z,19.36
2022-08-26T21:31:46.531Z,19.34
2022-08-26T21:34:16.123Z,19.59
2022-08-26T21:36:44.187Z,19.73
2022-08-26T21:39:13.855Z,19.99
2022-08-26T21:41:42.980Z,19.92
2022-08-26T21:44:11.995Z,19.94
2022-08-26T21:46:40.204Z,19.96
2022-08-26T21:49:11.124Z,19.91
2022-08-26T21:51:41.250Z,19.85
2022-08-26T21:54:11.481Z,19.96
2022-08-26T21:56:47.115Z,19.94
2022-08-26T21:59:16.859Z,19.81
2022-08-26T22:01:44.814Z,19.86
2022-08-26T22:04:12.841Z,20.00
2022-08-26T22:06:43.410Z,19.99
2022-08-26T22:09:12.127Z,19.97
2022-08-26T22:11:41.840Z,19.90
2022-08-26T22:14:11.410Z,19.95
2022-08-26T22:16:39.425Z,19.83
2022-08-26T22:19:07.841Z,19.82
2022-08-26T22:21:40.671Z,19.72
2022-08-26T22:24:12.479Z,19.70
2022-08-26T22:26:41.880Z,19.76
2022-08-26T22:29:10.271Z,19.60
2022-08-26T22:31:38.896Z,19.69
2022-08-26T22:34:09.897Z,19.61
2022-08-26T22:36:43.320Z,19.50
2022-08-26T22:39:13.368Z,19.47
2022-08-26T22:41:43.635Z,19.49
2022-08-26T22:44:13.120Z,19.47
2022-08-26T22:46:42.769Z,19.46
2022-08-26T22:49:12.858Z,19.47
2022-08-26T22:51:40.761Z,19.46
2022-08-26T22:54:08.745Z,19.70
2022-08-26T22:56:37.201Z,19.59
2022-08-26T22:59:08.078Z,19.48
2022-08-26T23:01:37.559Z,19.34
2022-08-26T23:04:07.720Z,19.44
2022-08-26T23:06:37.587Z,19.26
2022-08-26T23:09:07.455Z,19.37
2022-08-26T23:11:36.266Z,19.17
2022-08-26T23:14:06.286Z,19.21
2022-08-26T23:16:39.171Z,19.23
2022-08-26T23:19:08.364Z,19.42
2022-08-26T23:21:36.969Z,19.43
2022-08-26T23:24:05.731Z,19.47
2022-08-26T23:26:34.068Z,19.60
2022-08-26T23:29:02.101Z,19.53
2022-08-26T23:31:30.199Z,19.45
2022-08-26T23:34:17.575Z,19.46
2022-08-26T23:36:46.265Z,19.38
2022-08-26T23:39:15.567Z,19.45
2022-08-26T23:41:43.845Z,19.55
2022-08-26T23:44:12.762Z,19.67
2022-08-26T23:46:40.911Z,19.66
2022-08-26T23:49:10.804Z,19.71
2022-08-26T23:51:57.124Z,19.70
2022-08-26T23:54:25.280Z,19.70
2022-08-26T23:56:53.389Z,19.72
2022-08-26T23:59:21.850Z,19.75
